sensor_id;sensor_type;location;lat;lon;timestamp;P1;durP1;ratioP1;P2;durP2;ratioP2
3321;SDS011;1673;51.388;7.086;2023-04-25T00:01:46;20.65;;;7.40;;
3321;SDS011;1673;51.388;7.086;2023-04-25T00:04:15;26.10;;;7.70;;
3321;SDS011;1673;51.388;7.086;2023-04-25T00:06:46;18.92;;;7.70;;
3321;SDS011;1673;51.388;7.086;2023-04-25T00:09:15;23.67;;;7.60;;
3321;SDS011;1673;51.388;7.086;2023-04-25T00:11:48;38.42;;;9.80;;
3321;SDS011;1673;51.388;7.086;2023-04-25T00:14:17;25.08;;;8.70;;
3321;SDS011;1673;51.388;7.086;2023-04-25T00:16:47;22.00;;;8.40;;
3321;SDS011;1673;51.388;7.086;2023-04-25T00:19:18;22.80;;;7.47;;
3321;SDS011;1673;51.388;7.086;2023-04-25T00:21:47;25.98;;;7.55;;
3321;SDS011;1673;51.388;7.086;2023-04-25T00:24:17;23.40;;;7.20;;
3321;SDS011;1673;51.388;7.086;2023-04-25T00:26:50;28.42;;;7.80;;
3321;SDS011;1673;51.388;7.086;2023-04-25T00:29:19;22.35;;;7.43;;
3321;SDS011;1673;51.388;7.086;2023-04-25T00:31:49;19.77;;;7.57;;
3321;SDS011;1673;51.388;7.086;2023-04-25T00:34:19;17.65;;;7.45;;
3321;SDS011;1673;51.388;7.086;2023-04-25T00:36:49;18.90;;;6.95;;
3321;SDS011;1673;51.388;7.086;2023-04-25T00:39:18;16.13;;;6.32;;
3321;SDS011;1673;51.388;7.086;2023-04-25T00:41:51;20.35;;;6.82;;
3321;SDS011;1673;51.388;7.086;2023-04-25T00:44:22;19.52;;;7.15;;
3321;SDS011;1673;51.388;7.086;2023-04-25T00:46:53;21.33;;;6.47;;
3321;SDS011;1673;51.388;7.086;2023-04-25T00:49:23;18.15;;;7.10;;
3321;SDS011;1673;51.388;7.086;2023-04-25T00:51:53;22.92;;;6.72;;
3321;SDS011;1673;51.388;7.086;2023-04-25T00:54:22;18.35;;;6.22;;
3321;SDS011;1673;51.388;7.086;2023-04-25T00:56:55;21.75;;;7.03;;
3321;SDS011;1673;51.388;7.086;2023-04-25T00:59:25;22.02;;;7.32;;
3321;SDS011;1673;51.388;7.086;2023-04-25T01:01:56;19.40;;;6.80;;
3321;SDS011;1673;51.388;7.086;2023-04-25T01:04:26;18.65;;;8.40;;
3321;SDS011;1673;51.388;7.086;2023-04-25T01:06:56;21.23;;;7.50;;
3321;SDS011;1673;51.388;7.086;2023-04-25T01:09:29;20.00;;;7.53;;
3321;SDS011;1673;51.388;7.086;2023-04-25T01:12:02;23.33;;;8.20;;
3321;SDS011;1673;51.388;7.086;2023-04-25T01:14:33;19.33;;;7.40;;
3321;SDS011;1673;51.388;7.086;2023-04-25T01:17:04;21.17;;;8.63;;
3321;SDS011;1673;51.388;7.086;2023-04-25T01:19:35;19.52;;;8.50;;
3321;SDS011;1673;51.388;7.086;2023-04-25T01:22:07;21.65;;;7.75;;
3321;SDS011;1673;51.388;7.086;2023-04-25T01:24:39;21.80;;;8.20;;
3321;SDS011;1673;51.388;7.086;2023-04-25T01:27:09;23.40;;;8.77;;
3321;SDS011;1673;51.388;7.086;2023-04-25T01:29:40;20.45;;;9.07;;
3321;SDS011;1673;51.388;7.086;2023-04-25T01:32:10;24.25;;;9.48;;
3321;SDS011;1673;51.388;7.086;2023-04-25T01:34:41;20.23;;;8.15;;
3321;SDS011;1673;51.388;7.086;2023-04-25T01:37:13;27.73;;;9.07;;
3321;SDS011;1673;51.388;7.086;2023-04-25T01:39:44;22.02;;;8.50;;
3321;SDS011;1673;51.388;7.086;2023-04-25T01:42:15;18.90;;;8.48;;
3321;SDS011;1673;51.388;7.086;2023-04-25T01:44:44;18.60;;;7.90;;
3321;SDS011;1673;51.388;7.086;2023-04-25T01:47:14;21.83;;;8.23;;
3321;SDS011;1673;51.388;7.086;2023-04-25T01:49:44;24.83;;;9.10;;
3321;SDS011;1673;51.388;7.086;2023-04-25T01:52:17;23.38;;;7.50;;
3321;SDS011;1673;51.388;7.086;2023-04-25T01:54:46;24.42;;;8.20;;
3321;SDS011;1673;51.388;7.086;2023-04-25T01:57:17;23.38;;;8.30;;
3321;SDS011;1673;51.388;7.086;2023-04-25T01:59:47;21.13;;;8.27;;
3321;SDS011;1673;51.388;7.086;2023-04-25T02:02:37;22.17;;;7.85;;
3321;SDS011;1673;51.388;7.086;2023-04-25T02:05:18;15.50;;;7.53;;
3321;SDS011;1673;51.388;7.086;2023-04-25T02:07:51;24.83;;;8.77;;
3321;SDS011;1673;51.388;7.086;2023-04-25T02:10:24;25.42;;;8.70;;
3321;SDS011;1673;51.388;7.086;2023-04-25T02:13:14;23.25;;;8.75;;
3321;SDS011;1673;51.388;7.086;2023-04-25T02:16:04;21.60;;;9.70;;
3321;SDS011;1673;51.388;7.086;2023-04-25T02:18:37;18.00;;;7.60;;
3321;SDS011;1673;51.388;7.086;2023-04-25T02:21:07;23.67;;;8.40;;
3321;SDS011;1673;51.388;7.086;2023-04-25T02:23:40;27.50;;;9.20;;
3321;SDS011;1673;51.388;7.086;2023-04-25T02:26:12;18.93;;;8.60;;
3321;SDS011;1673;51.388;7.086;2023-04-25T02:28:42;21.65;;;8.55;;
3321;SDS011;1673;51.388;7.086;2023-04-25T02:31:12;15.02;;;7.80;;
3321;SDS011;1673;51.388;7.086;2023-04-25T02:33:42;24.05;;;8.65;;
3321;SDS011;1673;51.388;7.086;2023-04-25T02:36:12;25.48;;;9.25;;
3321;SDS011;1673;51.388;7.086;2023-04-25T02:38:44;22.70;;;8.53;;
3321;SDS011;1673;51.388;7.086;2023-04-25T02:41:14;21.45;;;8.60;;
3321;SDS011;1673;51.388;7.086;2023-04-25T02:43:44;16.55;;;7.70;;
3321;SDS011;1673;51.388;7.086;2023-04-25T02:46:17;20.30;;;7.93;;
3321;SDS011;1673;51.388;7.086;2023-04-25T02:49:04;19.17;;;7.75;;
3321;SDS011;1673;51.388;7.086;2023-04-25T02:51:35;21.77;;;9.07;;
3321;SDS011;1673;51.388;7.086;2023-04-25T02:54:07;25.33;;;8.55;;
3321;SDS011;1673;51.388;7.086;2023-04-25T02:56:41;25.40;;;8.65;;
3321;SDS011;1673;51.388;7.086;2023-04-25T02:59:16;21.50;;;8.75;;
3321;SDS011;1673;51.388;7.086;2023-04-25T03:01:46;18.83;;;9.15;;
3321;SDS011;1673;51.388;7.086;2023-04-25T03:04:16;22.17;;;8.50;;
3321;SDS011;1673;51.388;7.086;2023-04-25T03:06:46;20.05;;;8.90;;
3321;SDS011;1673;51.388;7.086;2023-04-25T03:09:22;20.20;;;8.73;;
3321;SDS011;1673;51.388;7.086;2023-04-25T03:11:52;23.13;;;9.30;;
3321;SDS011;1673;51.388;7.086;2023-04-25T03:14:22;22.85;;;10.65;;
3321;SDS011;1673;51.388;7.086;2023-04-25T03:16:52;29.17;;;12.82;;
3321;SDS011;1673;51.388;7.086;2023-04-25T03:19:22;28.00;;;11.27;;
3321;SDS011;1673;51.388;7.086;2023-04-25T03:21:51;29.13;;;12.27;;
3321;SDS011;1673;51.388;7.086;2023-04-25T03:24:24;28.30;;;11.52;;
3321;SDS011;1673;51.388;7.086;2023-04-25T03:26:54;38.05;;;12.00;;
3321;SDS011;1673;51.388;7.086;2023-04-25T03:29:24;25.35;;;11.60;;
3321;SDS011;1673;51.388;7.086;2023-04-25T03:31:56;30.83;;;11.77;;
3321;SDS011;1673;51.388;7.086;2023-04-25T03:34:26;27.75;;;11.77;;
3321;SDS011;1673;51.388;7.086;2023-04-25T03:36:56;28.00;;;12.32;;
3321;SDS011;1673;51.388;7.086;2023-04-25T03:39:29;24.70;;;11.85;;
3321;SDS011;1673;51.388;7.086;2023-04-25T03:41:59;27.73;;;11.65;;
3321;SDS011;1673;51.388;7.086;2023-04-25T03:44:30;30.13;;;12.48;;
3321;SDS011;1673;51.388;7.086;2023-04-25T03:47:00;32.50;;;14.20;;
3321;SDS011;1673;51.388;7.086;2023-04-25T03:49:30;37.28;;;13.82;;
3321;SDS011;1673;51.388;7.086;2023-04-25T03:52:02;38.88;;;14.45;;
3321;SDS011;1673;51.388;7.086;2023-04-25T03:54:38;37.42;;;14.52;;
3321;SDS011;1673;51.388;7.086;2023-04-25T03:57:12;39.00;;;15.95;;
3321;SDS011;1673;51.388;7.086;2023-04-25T03:59:42;39.33;;;15.73;;
3321;SDS011;1673;51.388;7.086;2023-04-25T04:02:14;34.05;;;13.73;;
3321;SDS011;1673;51.388;7.086;2023-04-25T04:04:44;36.47;;;15.13;;
3321;SDS011;1673;51.388;7.086;2023-04-25T04:07:15;37.38;;;15.00;;
3321;SDS011;1673;51.388;7.086;2023-04-25T04:09:49;35.25;;;15.05;;
3321;SDS011;1673;51.388;7.086;2023-04-25T04:12:25;37.73;;;14.87;;
3321;SDS011;1673;51.388;7.086;2023-04-25T04:14:55;35.45;;;14.30;;
3321;SDS011;1673;51.388;7.086;2023-04-25T04:17:25;34.50;;;13.82;;
3321;SDS011;1673;51.388;7.086;2023-04-25T04:19:56;32.75;;;13.60;;
3321;SDS011;1673;51.388;7.086;2023-04-25T04:22:29;36.20;;;13.30;;
3321;SDS011;1673;51.388;7.086;2023-04-25T04:25:08;38.60;;;13.18;;
3321;SDS011;1673;51.388;7.086;2023-04-25T04:27:57;34.67;;;13.38;;
3321;SDS011;1673;51.388;7.086;2023-04-25T04:30:48;32.47;;;13.00;;
3321;SDS011;1673;51.388;7.086;2023-04-25T04:33:19;25.10;;;11.18;;
3321;SDS011;1673;51.388;7.086;2023-04-25T04:35:55;25.05;;;11.00;;
3321;SDS011;1673;51.388;7.086;2023-04-25T04:38:26;25.58;;;11.23;;
3321;SDS011;1673;51.388;7.086;2023-04-25T04:41:02;28.27;;;11.85;;
3321;SDS011;1673;51.388;7.086;2023-04-25T04:43:47;27.95;;;13.40;;
3321;SDS011;1673;51.388;7.086;2023-04-25T04:46:35;35.30;;;13.40;;
3321;SDS011;1673;51.388;7.086;2023-04-25T04:49:27;31.33;;;13.30;;
3321;SDS011;1673;51.388;7.086;2023-04-25T04:52:26;39.65;;;15.00;;
3321;SDS011;1673;51.388;7.086;2023-04-25T04:55:21;34.40;;;14.07;;
3321;SDS011;1673;51.388;7.086;2023-04-25T04:58:05;47.40;;;15.20;;
3321;SDS011;1673;51.388;7.086;2023-04-25T05:00:47;37.22;;;16.30;;
3321;SDS011;1673;51.388;7.086;2023-04-25T05:03:52;44.40;;;14.25;;
3321;SDS011;1673;51.388;7.086;2023-04-25T05:06:50;37.22;;;14.15;;
3321;SDS011;1673;51.388;7.086;2023-04-25T05:09:39;35.97;;;13.18;;
3321;SDS011;1673;51.388;7.086;2023-04-25T05:12:09;30.55;;;12.90;;
3321;SDS011;1673;51.388;7.086;2023-04-25T05:14:50;35.97;;;11.88;;
3321;SDS011;1673;51.388;7.086;2023-04-25T05:17:29;31.40;;;12.57;;
3321;SDS011;1673;51.388;7.086;2023-04-25T05:20:18;35.92;;;12.77;;
3321;SDS011;1673;51.388;7.086;2023-04-25T05:23:23;39.33;;;11.40;;
3321;SDS011;1673;51.388;7.086;2023-04-25T05:26:30;30.75;;;11.10;;
3321;SDS011;1673;51.388;7.086;2023-04-25T05:29:26;36.08;;;11.52;;
3321;SDS011;1673;51.388;7.086;2023-04-25T05:32:18;33.10;;;10.40;;
3321;SDS011;1673;51.388;7.086;2023-04-25T05:34:49;35.40;;;10.63;;
3321;SDS011;1673;51.388;7.086;2023-04-25T05:37:23;30.00;;;10.52;;
3321;SDS011;1673;51.388;7.086;2023-04-25T05:39:57;27.65;;;9.73;;
3321;SDS011;1673;51.388;7.086;2023-04-25T05:42:45;35.87;;;10.30;;
3321;SDS011;1673;51.388;7.086;2023-04-25T05:45:28;35.70;;;9.73;;
3321;SDS011;1673;51.388;7.086;2023-04-25T05:48:11;22.10;;;8.50;;
3321;SDS011;1673;51.388;7.086;2023-04-25T05:50:52;28.17;;;9.45;;
3321;SDS011;1673;51.388;7.086;2023-04-25T05:53:40;29.75;;;9.30;;
3321;SDS011;1673;51.388;7.086;2023-04-25T05:56:12;34.13;;;9.45;;
3321;SDS011;1673;51.388;7.086;2023-04-25T05:58:42;24.23;;;9.63;;
3321;SDS011;1673;51.388;7.086;2023-04-25T06:01:12;23.38;;;8.70;;
3321;SDS011;1673;51.388;7.086;2023-04-25T06:03:46;35.83;;;8.90;;
3321;SDS011;1673;51.388;7.086;2023-04-25T06:06:16;30.23;;;10.07;;
3321;SDS011;1673;51.388;7.086;2023-04-25T06:08:46;36.97;;;10.40;;
3321;SDS011;1673;51.388;7.086;2023-04-25T06:11:16;31.13;;;9.63;;
3321;SDS011;1673;51.388;7.086;2023-04-25T06:13:46;31.08;;;8.50;;
3321;SDS011;1673;51.388;7.086;2023-04-25T06:16:16;30.83;;;9.85;;
3321;SDS011;1673;51.388;7.086;2023-04-25T06:18:49;30.63;;;9.93;;
3321;SDS011;1673;51.388;7.086;2023-04-25T06:21:19;32.03;;;9.80;;
3321;SDS011;1673;51.388;7.086;2023-04-25T06:23:50;27.48;;;9.20;;
3321;SDS011;1673;51.388;7.086;2023-04-25T06:26:22;29.55;;;8.82;;
3321;SDS011;1673;51.388;7.086;2023-04-25T06:28:52;21.10;;;8.30;;
3321;SDS011;1673;51.388;7.086;2023-04-25T06:31:22;29.08;;;9.25;;
3321;SDS011;1673;51.388;7.086;2023-04-25T06:33:56;26.85;;;7.88;;
3321;SDS011;1673;51.388;7.086;2023-04-25T06:36:29;24.70;;;8.73;;
3321;SDS011;1673;51.388;7.086;2023-04-25T06:39:04;31.65;;;8.73;;
3321;SDS011;1673;51.388;7.086;2023-04-25T06:41:35;25.70;;;8.30;;
3321;SDS011;1673;51.388;7.086;2023-04-25T06:44:07;33.88;;;9.13;;
3321;SDS011;1673;51.388;7.086;2023-04-25T06:46:48;28.50;;;9.43;;
3321;SDS011;1673;51.388;7.086;2023-04-25T06:49:21;26.58;;;9.00;;
3321;SDS011;1673;51.388;7.086;2023-04-25T06:51:51;29.85;;;9.05;;
3321;SDS011;1673;51.388;7.086;2023-04-25T06:54:21;31.85;;;10.55;;
3321;SDS011;1673;51.388;7.086;2023-04-25T06:56:59;29.42;;;9.02;;
3321;SDS011;1673;51.388;7.086;2023-04-25T06:59:30;23.55;;;8.57;;
3321;SDS011;1673;51.388;7.086;2023-04-25T07:02:01;29.23;;;7.38;;
3321;SDS011;1673;51.388;7.086;2023-04-25T07:04:35;23.40;;;7.57;;
3321;SDS011;1673;51.388;7.086;2023-04-25T07:07:05;23.73;;;7.95;;
3321;SDS011;1673;51.388;7.086;2023-04-25T07:09:45;18.98;;;7.70;;
3321;SDS011;1673;51.388;7.086;2023-04-25T07:12:14;26.30;;;7.40;;
3321;SDS011;1673;51.388;7.086;2023-04-25T07:14:44;23.63;;;7.07;;
3321;SDS011;1673;51.388;7.086;2023-04-25T07:17:14;14.85;;;6.50;;
3321;SDS011;1673;51.388;7.086;2023-04-25T07:19:48;21.88;;;5.63;;
3321;SDS011;1673;51.388;7.086;2023-04-25T07:22:18;20.35;;;5.43;;
3321;SDS011;1673;51.388;7.086;2023-04-25T07:24:48;16.58;;;4.70;;
3321;SDS011;1673;51.388;7.086;2023-04-25T07:27:23;21.63;;;4.93;;
3321;SDS011;1673;51.388;7.086;2023-04-25T07:30:14;13.90;;;4.28;;
3321;SDS011;1673;51.388;7.086;2023-04-25T07:32:44;16.40;;;5.45;;
3321;SDS011;1673;51.388;7.086;2023-04-25T07:35:17;23.23;;;5.28;;
3321;SDS011;1673;51.388;7.086;2023-04-25T07:37:47;16.40;;;5.57;;
3321;SDS011;1673;51.388;7.086;2023-04-25T07:40:18;19.85;;;5.90;;
3321;SDS011;1673;51.388;7.086;2023-04-25T07:42:54;19.80;;;6.38;;
3321;SDS011;1673;51.388;7.086;2023-04-25T07:45:31;19.23;;;5.10;;
3321;SDS011;1673;51.388;7.086;2023-04-25T07:48:02;18.80;;;5.60;;
3321;SDS011;1673;51.388;7.086;2023-04-25T07:50:38;15.10;;;4.50;;
3321;SDS011;1673;51.388;7.086;2023-04-25T07:53:08;19.00;;;5.70;;
3321;SDS011;1673;51.388;7.086;2023-04-25T07:55:45;14.77;;;4.50;;
3321;SDS011;1673;51.388;7.086;2023-04-25T07:58:16;12.07;;;4.78;;
3321;SDS011;1673;51.388;7.086;2023-04-25T08:00:52;15.07;;;4.30;;
3321;SDS011;1673;51.388;7.086;2023-04-25T08:03:51;21.45;;;4.70;;
3321;SDS011;1673;51.388;7.086;2023-04-25T08:06:31;15.83;;;4.20;;
3321;SDS011;1673;51.388;7.086;2023-04-25T08:09:07;16.70;;;4.43;;
3321;SDS011;1673;51.388;7.086;2023-04-25T08:11:39;20.20;;;4.70;;
3321;SDS011;1673;51.388;7.086;2023-04-25T08:14:11;16.00;;;4.50;;
3321;SDS011;1673;51.388;7.086;2023-04-25T08:16:43;24.95;;;4.75;;
3321;SDS011;1673;51.388;7.086;2023-04-25T08:19:12;17.63;;;4.30;;
3321;SDS011;1673;51.388;7.086;2023-04-25T08:21:46;17.55;;;3.80;;
3321;SDS011;1673;51.388;7.086;2023-04-25T08:24:25;19.30;;;4.28;;
3321;SDS011;1673;51.388;7.086;2023-04-25T08:26:55;13.55;;;3.35;;
3321;SDS011;1673;51.388;7.086;2023-04-25T08:29:27;16.10;;;3.42;;
3321;SDS011;1673;51.388;7.086;2023-04-25T08:31:57;13.50;;;3.60;;
3321;SDS011;1673;51.388;7.086;2023-04-25T08:34:28;18.47;;;4.07;;
3321;SDS011;1673;51.388;7.086;2023-04-25T08:37:04;10.80;;;3.45;;
3321;SDS011;1673;51.388;7.086;2023-04-25T08:39:39;15.65;;;3.70;;
3321;SDS011;1673;51.388;7.086;2023-04-25T08:42:36;14.55;;;3.58;;
3321;SDS011;1673;51.388;7.086;2023-04-25T08:45:07;11.35;;;2.80;;
3321;SDS011;1673;51.388;7.086;2023-04-25T08:47:40;14.40;;;3.78;;
3321;SDS011;1673;51.388;7.086;2023-04-25T08:50:10;10.95;;;3.50;;
3321;SDS011;1673;51.388;7.086;2023-04-25T08:52:44;13.73;;;3.15;;
3321;SDS011;1673;51.388;7.086;2023-04-25T08:55:14;18.02;;;3.50;;
3321;SDS011;1673;51.388;7.086;2023-04-25T08:57:45;12.48;;;3.97;;
3321;SDS011;1673;51.388;7.086;2023-04-25T09:00:16;15.80;;;3.85;;
3321;SDS011;1673;51.388;7.086;2023-04-25T09:02:46;15.60;;;4.07;;
3321;SDS011;1673;51.388;7.086;2023-04-25T09:05:16;19.83;;;5.85;;
3321;SDS011;1673;51.388;7.086;2023-04-25T09:07:53;13.77;;;3.90;;
3321;SDS011;1673;51.388;7.086;2023-04-25T09:10:24;12.07;;;3.20;;
3321;SDS011;1673;51.388;7.086;2023-04-25T09:13:02;16.63;;;3.80;;
3321;SDS011;1673;51.388;7.086;2023-04-25T09:15:54;15.00;;;4.20;;
3321;SDS011;1673;51.388;7.086;2023-04-25T09:18:43;16.65;;;4.05;;
3321;SDS011;1673;51.388;7.086;2023-04-25T09:21:15;13.90;;;3.30;;
3321;SDS011;1673;51.388;7.086;2023-04-25T09:23:49;15.80;;;3.90;;
3321;SDS011;1673;51.388;7.086;2023-04-25T09:26:20;12.95;;;3.10;;
3321;SDS011;1673;51.388;7.086;2023-04-25T09:28:50;11.80;;;3.90;;
3321;SDS011;1673;51.388;7.086;2023-04-25T09:31:37;9.87;;;3.20;;
3321;SDS011;1673;51.388;7.086;2023-04-25T09:34:10;9.52;;;2.70;;
3321;SDS011;1673;51.388;7.086;2023-04-25T09:36:46;15.07;;;3.80;;
3321;SDS011;1673;51.388;7.086;2023-04-25T09:39:42;13.63;;;3.30;;
3321;SDS011;1673;51.388;7.086;2023-04-25T09:42:15;14.90;;;2.85;;
3321;SDS011;1673;51.388;7.086;2023-04-25T09:44:46;10.75;;;2.72;;
3321;SDS011;1673;51.388;7.086;2023-04-25T09:47:16;10.75;;;2.75;;
3321;SDS011;1673;51.388;7.086;2023-04-25T09:49:48;13.60;;;3.10;;
3321;SDS011;1673;51.388;7.086;2023-04-25T09:52:20;9.02;;;2.40;;
3321;SDS011;1673;51.388;7.086;2023-04-25T09:58:41;13.32;;;3.13;;
3321;SDS011;1673;51.388;7.086;2023-04-25T10:01:15;12.03;;;2.87;;
3321;SDS011;1673;51.388;7.086;2023-04-25T10:04:00;12.57;;;2.55;;
3321;SDS011;1673;51.388;7.086;2023-04-25T10:06:53;9.13;;;2.03;;
3321;SDS011;1673;51.388;7.086;2023-04-25T10:09:28;10.13;;;2.10;;
3321;SDS011;1673;51.388;7.086;2023-04-25T10:12:00;16.52;;;2.45;;
3321;SDS011;1673;51.388;7.086;2023-04-25T10:14:32;8.57;;;2.53;;
3321;SDS011;1673;51.388;7.086;2023-04-25T10:17:03;9.23;;;2.58;;
3321;SDS011;1673;51.388;7.086;2023-04-25T10:19:33;8.57;;;2.20;;
3321;SDS011;1673;51.388;7.086;2023-04-25T10:22:04;9.25;;;2.40;;
3321;SDS011;1673;51.388;7.086;2023-04-25T10:24:37;10.80;;;2.15;;
3321;SDS011;1673;51.388;7.086;2023-04-25T10:27:08;8.77;;;2.55;;
3321;SDS011;1673;51.388;7.086;2023-04-25T10:29:40;10.27;;;2.50;;
3321;SDS011;1673;51.388;7.086;2023-04-25T10:32:11;11.43;;;2.70;;
3321;SDS011;1673;51.388;7.086;2023-04-25T10:34:42;7.28;;;2.35;;
3321;SDS011;1673;51.388;7.086;2023-04-25T10:37:13;10.93;;;2.20;;
3321;SDS011;1673;51.388;7.086;2023-04-25T10:39:43;6.18;;;2.50;;
3321;SDS011;1673;51.388;7.086;2023-04-25T10:42:13;14.35;;;3.08;;
3321;SDS011;1673;51.388;7.086;2023-04-25T10:45:00;8.32;;;2.30;;
3321;SDS011;1673;51.388;7.086;2023-04-25T10:47:34;11.02;;;2.50;;
3321;SDS011;1673;51.388;7.086;2023-04-25T10:50:05;8.48;;;2.50;;
3321;SDS011;1673;51.388;7.086;2023-04-25T10:52:36;6.00;;;2.28;;
3321;SDS011;1673;51.388;7.086;2023-04-25T10:55:08;8.00;;;2.50;;
3321;SDS011;1673;51.388;7.086;2023-04-25T10:57:39;11.63;;;2.22;;
3321;SDS011;1673;51.388;7.086;2023-04-25T11:00:14;6.53;;;2.40;;
3321;SDS011;1673;51.388;7.086;2023-04-25T11:02:46;8.98;;;2.30;;
3321;SDS011;1673;51.388;7.086;2023-04-25T11:05:19;15.88;;;3.17;;
3321;SDS011;1673;51.388;7.086;2023-04-25T11:07:51;11.40;;;3.03;;
3321;SDS011;1673;51.388;7.086;2023-04-25T11:10:26;8.90;;;2.90;;
3321;SDS011;1673;51.388;7.086;2023-04-25T11:12:57;9.40;;;2.65;;
3321;SDS011;1673;51.388;7.086;2023-04-25T11:15:30;8.82;;;2.35;;
3321;SDS011;1673;51.388;7.086;2023-04-25T11:18:00;9.45;;;2.28;;
3321;SDS011;1673;51.388;7.086;2023-04-25T11:20:30;12.38;;;2.50;;
3321;SDS011;1673;51.388;7.086;2023-04-25T11:22:59;11.48;;;2.53;;
3321;SDS011;1673;51.388;7.086;2023-04-25T11:25:29;8.68;;;2.78;;
3321;SDS011;1673;51.388;7.086;2023-04-25T11:28:02;14.20;;;2.85;;
3321;SDS011;1673;51.388;7.086;2023-04-25T11:30:34;11.57;;;2.65;;
3321;SDS011;1673;51.388;7.086;2023-04-25T11:33:04;12.07;;;3.13;;
3321;SDS011;1673;51.388;7.086;2023-04-25T11:35:33;11.40;;;2.83;;
3321;SDS011;1673;51.388;7.086;2023-04-25T11:38:03;9.88;;;2.65;;
3321;SDS011;1673;51.388;7.086;2023-04-25T11:43:57;7.65;;;2.78;;
3321;SDS011;1673;51.388;7.086;2023-04-25T11:46:30;13.27;;;2.50;;
3321;SDS011;1673;51.388;7.086;2023-04-25T11:49:01;13.23;;;2.50;;
3321;SDS011;1673;51.388;7.086;2023-04-25T11:51:37;10.10;;;2.72;;
3321;SDS011;1673;51.388;7.086;2023-04-25T11:54:07;8.35;;;2.40;;
3321;SDS011;1673;51.388;7.086;2023-04-25T11:56:40;11.05;;;2.78;;
3321;SDS011;1673;51.388;7.086;2023-04-25T11:59:10;8.90;;;2.42;;
3321;SDS011;1673;51.388;7.086;2023-04-25T12:01:47;10.70;;;2.60;;
3321;SDS011;1673;51.388;7.086;2023-04-25T12:04:18;11.73;;;2.80;;
3321;SDS011;1673;51.388;7.086;2023-04-25T12:06:54;9.23;;;2.50;;
3321;SDS011;1673;51.388;7.086;2023-04-25T12:09:28;12.65;;;2.63;;
3321;SDS011;1673;51.388;7.086;2023-04-25T12:11:59;10.77;;;2.30;;
3321;SDS011;1673;51.388;7.086;2023-04-25T12:14:34;10.40;;;2.50;;
3321;SDS011;1673;51.388;7.086;2023-04-25T12:17:07;17.80;;;3.22;;
3321;SDS011;1673;51.388;7.086;2023-04-25T12:19:38;7.10;;;2.63;;
3321;SDS011;1673;51.388;7.086;2023-04-25T12:22:20;7.53;;;2.60;;
3321;SDS011;1673;51.388;7.086;2023-04-25T12:24:51;8.00;;;2.58;;
3321;SDS011;1673;51.388;7.086;2023-04-25T12:27:23;9.13;;;2.60;;
3321;SDS011;1673;51.388;7.086;2023-04-25T12:29:55;12.32;;;2.45;;
3321;SDS011;1673;51.388;7.086;2023-04-25T12:32:28;9.13;;;2.90;;
3321;SDS011;1673;51.388;7.086;2023-04-25T12:34:58;9.02;;;2.85;;
3321;SDS011;1673;51.388;7.086;2023-04-25T12:37:28;11.80;;;3.00;;
3321;SDS011;1673;51.388;7.086;2023-04-25T12:39:58;8.40;;;2.70;;
3321;SDS011;1673;51.388;7.086;2023-04-25T12:42:27;6.90;;;2.70;;
3321;SDS011;1673;51.388;7.086;2023-04-25T12:44:57;6.20;;;2.33;;
3321;SDS011;1673;51.388;7.086;2023-04-25T12:47:29;8.23;;;2.60;;
3321;SDS011;1673;51.388;7.086;2023-04-25T12:50:01;10.45;;;2.55;;
3321;SDS011;1673;51.388;7.086;2023-04-25T12:52:31;9.50;;;2.90;;
3321;SDS011;1673;51.388;7.086;2023-04-25T12:55:01;7.63;;;2.40;;
3321;SDS011;1673;51.388;7.086;2023-04-25T12:57:32;7.00;;;2.60;;
3321;SDS011;1673;51.388;7.086;2023-04-25T13:00:02;7.60;;;2.50;;
3321;SDS011;1673;51.388;7.086;2023-04-25T13:02:38;10.75;;;2.72;;
3321;SDS011;1673;51.388;7.086;2023-04-25T13:05:08;7.10;;;2.40;;
3321;SDS011;1673;51.388;7.086;2023-04-25T13:07:38;6.73;;;2.40;;
3321;SDS011;1673;51.388;7.086;2023-04-25T13:10:08;8.93;;;2.83;;
3321;SDS011;1673;51.388;7.086;2023-04-25T13:12:37;5.30;;;2.10;;
3321;SDS011;1673;51.388;7.086;2023-04-25T13:15:08;7.32;;;2.40;;
3321;SDS011;1673;51.388;7.086;2023-04-25T13:17:41;6.68;;;1.70;;
3321;SDS011;1673;51.388;7.086;2023-04-25T13:20:12;5.45;;;1.90;;
3321;SDS011;1673;51.388;7.086;2023-04-25T13:22:42;7.63;;;2.50;;
3321;SDS011;1673;51.388;7.086;2023-04-25T13:25:12;7.57;;;2.70;;
3321;SDS011;1673;51.388;7.086;2023-04-25T13:27:43;6.45;;;2.25;;
3321;SDS011;1673;51.388;7.086;2023-04-25T13:30:13;5.85;;;2.30;;
3321;SDS011;1673;51.388;7.086;2023-04-25T13:32:45;8.20;;;2.72;;
3321;SDS011;1673;51.388;7.086;2023-04-25T13:35:16;10.00;;;2.90;;
3321;SDS011;1673;51.388;7.086;2023-04-25T13:37:46;6.93;;;1.92;;
3321;SDS011;1673;51.388;7.086;2023-04-25T13:40:16;7.30;;;2.10;;
3321;SDS011;1673;51.388;7.086;2023-04-25T13:42:49;21.70;;;3.08;;
3321;SDS011;1673;51.388;7.086;2023-04-25T13:45:19;8.18;;;2.20;;
3321;SDS011;1673;51.388;7.086;2023-04-25T13:47:52;7.53;;;2.40;;
3321;SDS011;1673;51.388;7.086;2023-04-25T13:50:22;6.03;;;2.40;;
3321;SDS011;1673;51.388;7.086;2023-04-25T13:52:52;6.80;;;2.60;;
3321;SDS011;1673;51.388;7.086;2023-04-25T13:55:22;8.00;;;2.60;;
3321;SDS011;1673;51.388;7.086;2023-04-25T13:57:51;6.50;;;2.20;;
3321;SDS011;1673;51.388;7.086;2023-04-25T14:00:21;8.05;;;2.45;;
3321;SDS011;1673;51.388;7.086;2023-04-25T14:02:54;9.10;;;2.40;;
3321;SDS011;1673;51.388;7.086;2023-04-25T14:05:24;6.47;;;2.08;;
3321;SDS011;1673;51.388;7.086;2023-04-25T14:07:53;8.20;;;2.00;;
3321;SDS011;1673;51.388;7.086;2023-04-25T14:10:25;6.68;;;2.00;;
3321;SDS011;1673;51.388;7.086;2023-04-25T14:12:55;5.05;;;1.95;;
3321;SDS011;1673;51.388;7.086;2023-04-25T14:15:25;5.13;;;2.00;;
3321;SDS011;1673;51.388;7.086;2023-04-25T14:17:57;10.25;;;2.60;;
3321;SDS011;1673;51.388;7.086;2023-04-25T14:20:27;7.75;;;1.70;;
3321;SDS011;1673;51.388;7.086;2023-04-25T14:22:57;6.63;;;1.70;;
3321;SDS011;1673;51.388;7.086;2023-04-25T14:25:27;8.00;;;2.28;;
3321;SDS011;1673;51.388;7.086;2023-04-25T14:27:57;8.52;;;2.20;;
3321;SDS011;1673;51.388;7.086;2023-04-25T14:30:27;7.50;;;1.65;;
3321;SDS011;1673;51.388;7.086;2023-04-25T14:32:59;7.88;;;1.70;;
3321;SDS011;1673;51.388;7.086;2023-04-25T14:35:29;6.82;;;1.60;;
3321;SDS011;1673;51.388;7.086;2023-04-25T14:37:59;5.23;;;1.73;;
3321;SDS011;1673;51.388;7.086;2023-04-25T14:40:29;6.97;;;1.50;;
3321;SDS011;1673;51.388;7.086;2023-04-25T14:42:58;6.20;;;1.67;;
3321;SDS011;1673;51.388;7.086;2023-04-25T14:45:28;9.48;;;1.60;;
3321;SDS011;1673;51.388;7.086;2023-04-25T14:48:00;6.47;;;1.77;;
3321;SDS011;1673;51.388;7.086;2023-04-25T14:50:31;3.03;;;1.38;;
3321;SDS011;1673;51.388;7.086;2023-04-25T14:53:01;5.75;;;2.10;;
3321;SDS011;1673;51.388;7.086;2023-04-25T14:55:31;5.40;;;2.10;;
3321;SDS011;1673;51.388;7.086;2023-04-25T14:58:01;6.32;;;2.70;;
3321;SDS011;1673;51.388;7.086;2023-04-25T15:00:31;7.23;;;2.10;;
3321;SDS011;1673;51.388;7.086;2023-04-25T15:03:03;5.30;;;1.58;;
3321;SDS011;1673;51.388;7.086;2023-04-25T15:05:34;7.00;;;1.80;;
3321;SDS011;1673;51.388;7.086;2023-04-25T15:08:04;9.10;;;2.00;;
3321;SDS011;1673;51.388;7.086;2023-04-25T15:10:34;6.78;;;1.40;;
3321;SDS011;1673;51.388;7.086;2023-04-25T15:13:03;6.07;;;1.65;;
3321;SDS011;1673;51.388;7.086;2023-04-25T15:15:33;6.00;;;2.05;;
3321;SDS011;1673;51.388;7.086;2023-04-25T15:18:06;7.80;;;2.00;;
3321;SDS011;1673;51.388;7.086;2023-04-25T15:20:36;5.00;;;1.70;;
3321;SDS011;1673;51.388;7.086;2023-04-25T15:23:06;4.10;;;1.60;;
3321;SDS011;1673;51.388;7.086;2023-04-25T15:25:36;6.90;;;1.77;;
3321;SDS011;1673;51.388;7.086;2023-04-25T15:28:06;6.70;;;1.75;;
3321;SDS011;1673;51.388;7.086;2023-04-25T15:30:36;6.30;;;2.03;;
3321;SDS011;1673;51.388;7.086;2023-04-25T15:33:08;7.40;;;1.80;;
3321;SDS011;1673;51.388;7.086;2023-04-25T15:35:38;6.65;;;1.55;;
3321;SDS011;1673;51.388;7.086;2023-04-25T15:38:08;7.47;;;1.90;;
3321;SDS011;1673;51.388;7.086;2023-04-25T15:40:39;6.35;;;2.13;;
3321;SDS011;1673;51.388;7.086;2023-04-25T15:43:09;7.53;;;2.03;;
3321;SDS011;1673;51.388;7.086;2023-04-25T15:45:41;7.50;;;1.98;;
3321;SDS011;1673;51.388;7.086;2023-04-25T15:48:14;7.82;;;2.10;;